createdAt,value
2019-01-12T00:01:58.351Z,954.22
2019-01-12T00:04:24.656Z,954.22
2019-01-12T00:06:50.981Z,954.22
2019-01-12T00:09:17.301Z,954.04
2019-01-12T00:11:43.611Z,954.02
2019-01-12T00:14:09.913Z,954.21
2019-01-12T00:16:36.222Z,954.44
2019-01-12T00:19:02.551Z,954.44
2019-01-12T00:21:28.851Z,954.35
2019-01-12T00:23:55.176Z,954.36
2019-01-12T00:26:21.499Z,954.31
2019-01-12T00:28:47.823Z,954.34
2019-01-12T00:31:14.116Z,954.29
2019-01-12T00:33:40.452Z,954.32
2019-01-12T00:36:06.786Z,954.35
2019-01-12T00:38:33.087Z,954.24
2019-01-12T00:40:59.396Z,954.17
2019-01-12T00:43:25.704Z,954.20
2019-01-12T00:45:52.010Z,954.21
2019-01-12T00:48:18.340Z,954.10
2019-01-12T00:50:44.630Z,954.09
2019-01-12T00:53:10.934Z,954.11
2019-01-12T00:55:37.236Z,954.07
2019-01-12T00:58:03.548Z,954.15
2019-01-12T01:00:29.861Z,954.08
2019-01-12T01:02:56.175Z,954.08
2019-01-12T01:05:22.485Z,953.97
2019-01-12T01:07:48.784Z,953.97
2019-01-12T01:10:15.087Z,953.87
2019-01-12T01:12:41.407Z,953.94
2019-01-12T01:15:07.721Z,954.02
2019-01-12T01:17:34.082Z,954.00
2019-01-12T01:20:00.350Z,954.00
2019-01-12T01:22:26.648Z,953.96
2019-01-12T01:24:52.951Z,953.97
2019-01-12T01:27:19.261Z,954.00
2019-01-12T01:29:45.604Z,954.03
2019-01-12T01:32:11.857Z,954.06
2019-01-12T01:34:38.162Z,954.02
2019-01-12T01:37:04.459Z,954.00
2019-01-12T01:39:30.761Z,953.96
2019-01-12T01:41:57.098Z,953.98
2019-01-12T01:44:23.410Z,953.96
2019-01-12T01:46:49.709Z,953.91
2019-01-12T01:49:16.019Z,953.94
2019-01-12T01:51:42.309Z,953.90
2019-01-12T01:54:08.601Z,953.88
2019-01-12T01:56:34.903Z,953.90
2019-01-12T01:59:01.209Z,953.83
2019-01-12T02:01:27.514Z,953.72
2019-01-12T02:03:53.813Z,953.75
2019-01-12T02:06:20.132Z,953.72
2019-01-12T02:08:46.444Z,953.78
2019-01-12T02:11:12.748Z,953.78
2019-01-12T02:13:39.050Z,953.72
2019-01-12T02:16:05.359Z,953.77
2019-01-12T02:18:31.662Z,953.74
2019-01-12T02:20:57.983Z,953.59
2019-01-12T02:23:24.303Z,953.53
2019-01-12T02:25:50.597Z,953.59
2019-01-12T02:28:16.892Z,953.51
2019-01-12T02:30:43.206Z,953.57
2019-01-12T02:33:09.522Z,953.57
2019-01-12T02:35:35.822Z,953.52
2019-01-12T02:38:02.139Z,953.54
2019-01-12T02:40:28.446Z,953.46
2019-01-12T02:42:54.766Z,953.45
2019-01-12T02:45:21.133Z,953.52
2019-01-12T02:47:47.402Z,953.42
2019-01-12T02:50:13.721Z,953.41
2019-01-12T02:52:40.005Z,953.36
2019-01-12T02:55:08.903Z,953.35
2019-01-12T02:57:32.613Z,953.29
2019-01-12T02:59:58.926Z,953.26
2019-01-12T03:02:25.223Z,953.25
2019-01-12T03:04:51.518Z,953.26
2019-01-12T03:07:17.822Z,953.29
2019-01-12T03:09:44.133Z,953.12
2019-01-12T03:12:10.463Z,953.05
2019-01-12T03:14:36.758Z,953.06
2019-01-12T03:17:03.066Z,953.03
2019-01-12T03:19:29.369Z,952.99
2019-01-12T03:21:55.671Z,952.86
2019-01-12T03:24:21.982Z,952.89
2019-01-12T03:26:48.279Z,952.89
2019-01-12T03:29:14.605Z,953.00
2019-01-12T03:31:40.916Z,952.94
2019-01-12T03:34:07.205Z,952.84
2019-01-12T03:36:33.509Z,952.79
2019-01-12T03:38:59.820Z,952.74
2019-01-12T03:41:26.166Z,952.81
2019-01-12T03:43:52.467Z,952.81
2019-01-12T03:46:18.762Z,952.91
2019-01-12T03:48:45.054Z,952.83
2019-01-12T03:51:11.347Z,952.82
2019-01-12T03:53:37.649Z,952.81
2019-01-12T03:56:03.960Z,952.77
2019-01-12T03:58:30.260Z,952.82
2019-01-12T04:00:56.559Z,952.79
2019-01-12T04:03:22.870Z,952.78
2019-01-12T04:05:49.205Z,952.77
2019-01-12T04:08:15.496Z,952.77
2019-01-12T04:10:41.796Z,952.84
2019-01-12T04:13:08.115Z,952.84
2019-01-12T04:15:34.418Z,952.81
2019-01-12T04:18:00.736Z,952.77
2019-01-12T04:20:27.028Z,952.80
2019-01-12T04:22:53.327Z,952.78
2019-01-12T04:25:19.627Z,952.81
2019-01-12T04:27:45.918Z,952.83
2019-01-12T04:30:12.211Z,952.84
2019-01-12T04:32:38.515Z,952.71
2019-01-12T04:35:04.830Z,952.76
2019-01-12T04:37:31.129Z,952.76
2019-01-12T04:39:57.429Z,952.82
2019-01-12T04:42:23.727Z,952.79
2019-01-12T04:44:50.036Z,952.74
2019-01-12T04:47:16.333Z,952.76
2019-01-12T04:49:42.628Z,952.69
2019-01-12T04:52:08.942Z,952.69
2019-01-12T04:54:35.244Z,952.62
2019-01-12T04:57:01.543Z,952.66
2019-01-12T04:59:27.854Z,952.72
2019-01-12T05:01:54.157Z,952.72
2019-01-12T05:04:20.467Z,952.72
2019-01-12T05:06:46.791Z,952.67
2019-01-12T05:09:13.088Z,952.75
2019-01-12T05:11:39.441Z,952.80
2019-01-12T05:14:05.754Z,952.77
2019-01-12T05:16:32.066Z,952.76
2019-01-12T05:18:58.359Z,952.77
2019-01-12T05:21:24.690Z,952.82
2019-01-12T05:23:50.998Z,952.85
2019-01-12T05:26:17.296Z,952.85
2019-01-12T05:28:43.597Z,952.83
2019-01-12T05:31:09.892Z,952.87
2019-01-12T05:33:36.202Z,952.89
2019-01-12T05:36:02.604Z,952.89
2019-01-12T05:38:28.917Z,952.84
2019-01-12T05:40:55.223Z,952.84
2019-01-12T05:43:21.684Z,952.86
2019-01-12T05:45:47.998Z,952.89
2019-01-12T05:48:14.344Z,952.96
2019-01-12T05:50:40.632Z,952.99
2019-01-12T05:53:06.948Z,953.01
2019-01-12T05:55:33.252Z,952.98
2019-01-12T05:57:59.556Z,952.95
2019-01-12T06:00:25.945Z,952.90
2019-01-12T06:02:52.262Z,952.93
2019-01-12T06:05:18.557Z,952.91
2019-01-12T06:07:44.860Z,952.89
2019-01-12T06:10:11.152Z,952.92
2019-01-12T06:12:37.458Z,952.97
2019-01-12T06:15:03.772Z,952.86
2019-01-12T06:17:30.090Z,952.92
2019-01-12T06:19:56.392Z,952.99
2019-01-12T06:22:22.694Z,952.93
2019-01-12T06:24:49.008Z,953.04
2019-01-12T06:27:15.329Z,953.05
2019-01-12T06:29:41.634Z,953.02
2019-01-12T06:32:07.928Z,953.04
2019-01-12T06:34:34.225Z,952.96
2019-01-12T06:37:00.528Z,952.95
2019-01-12T06:39:26.815Z,953.00
2019-01-12T06:41:53.134Z,953.05
2019-01-12T06:44:19.434Z,953.04
2019-01-12T06:46:45.747Z,953.07
2019-01-12T06:49:12.058Z,953.07
2019-01-12T06:51:38.367Z,953.09
2019-01-12T06:54:04.680Z,953.09
2019-01-12T06:56:30.994Z,953.08
2019-01-12T06:58:57.293Z,953.02
2019-01-12T07:01:23.603Z,953.07
2019-01-12T07:03:49.899Z,953.05
2019-01-12T07:06:16.214Z,953.06
2019-01-12T07:08:42.515Z,953.02
2019-01-12T07:11:08.868Z,953.02
2019-01-12T07:13:35.165Z,953.06
2019-01-12T07:16:01.471Z,953.04
2019-01-12T07:18:27.823Z,953.08
2019-01-12T07:20:54.141Z,953.06
2019-01-12T07:23:20.460Z,953.00
2019-01-12T07:25:46.763Z,953.03
2019-01-12T07:28:13.075Z,953.01
2019-01-12T07:30:39.374Z,952.93
2019-01-12T07:33:05.703Z,953.07
2019-01-12T07:35:32.016Z,953.05
2019-01-12T07:37:58.317Z,953.02
2019-01-12T07:40:24.945Z,953.08
2019-01-12T07:42:51.234Z,953.09
2019-01-12T07:45:17.547Z,952.99
2019-01-12T07:47:43.871Z,953.03
2019-01-12T07:50:10.179Z,953.08
2019-01-12T07:52:36.489Z,953.14
2019-01-12T07:55:02.803Z,953.14
2019-01-12T07:57:29.105Z,953.26
2019-01-12T07:59:55.407Z,953.14
2019-01-12T08:02:21.702Z,953.12
2019-01-12T08:04:48.026Z,953.18
2019-01-12T08:07:14.325Z,953.13
2019-01-12T08:09:40.673Z,953.08
2019-01-12T08:12:06.943Z,953.09
2019-01-12T08:14:33.254Z,953.15
2019-01-12T08:16:59.550Z,953.02
2019-01-12T08:19:25.874Z,953.05
2019-01-12T08:21:52.199Z,953.11
2019-01-12T08:24:18.509Z,953.18
2019-01-12T08:26:44.824Z,953.20
2019-01-12T08:29:11.124Z,953.28
2019-01-12T08:31:37.439Z,953.23
2019-01-12T08:34:03.758Z,953.24
2019-01-12T08:36:30.057Z,953.24
2019-01-12T08:38:56.355Z,953.25
2019-01-12T08:41:22.649Z,953.23
2019-01-12T08:43:48.998Z,953.26
2019-01-12T08:46:15.338Z,953.27
2019-01-12T08:48:41.587Z,953.29
2019-01-12T08:51:07.895Z,953.19
2019-01-12T08:53:34.211Z,953.15
2019-01-12T08:56:00.511Z,953.22
2019-01-12T08:58:27.020Z,953.18
2019-01-12T09:00:53.320Z,953.16
2019-01-12T09:03:19.627Z,953.03
2019-01-12T09:05:45.943Z,953.00
2019-01-12T09:08:12.244Z,952.88
2019-01-12T09:10:38.627Z,952.90
2019-01-12T09:13:04.934Z,952.89
2019-01-12T09:15:31.267Z,952.84
2019-01-12T09:17:57.569Z,952.68
2019-01-12T09:20:23.880Z,952.65
2019-01-12T09:22:50.201Z,952.57
2019-01-12T09:25:16.492Z,952.56
2019-01-12T09:27:42.814Z,952.51
2019-01-12T09:30:09.115Z,952.43
2019-01-12T09:32:35.412Z,952.34
2019-01-12T09:35:01.737Z,952.41
2019-01-12T09:37:28.057Z,952.36
2019-01-12T09:39:54.352Z,952.34
2019-01-12T09:42:20.653Z,952.30
2019-01-12T09:44:46.942Z,952.21
2019-01-12T09:47:13.245Z,952.23
2019-01-12T09:49:39.560Z,952.19
2019-01-12T09:52:05.871Z,952.22
2019-01-12T09:54:32.180Z,952.23
2019-01-12T09:56:58.477Z,952.15
2019-01-12T09:59:24.793Z,952.16
2019-01-12T10:01:51.114Z,952.14
2019-01-12T10:04:17.421Z,952.05
2019-01-12T10:06:43.746Z,952.13
2019-01-12T10:09:10.055Z,952.11
2019-01-12T10:11:36.353Z,952.02
2019-01-12T10:14:02.677Z,951.99
2019-01-12T10:16:28.992Z,952.06
2019-01-12T10:18:55.297Z,951.97
2019-01-12T10:21:21.628Z,951.96
2019-01-12T10:23:47.889Z,951.89
2019-01-12T10:26:14.190Z,951.78
2019-01-12T10:28:40.488Z,951.81
2019-01-12T10:31:06.805Z,951.84
2019-01-12T10:33:33.106Z,951.81
2019-01-12T10:35:59.409Z,951.81
2019-01-12T10:38:25.723Z,951.68
2019-01-12T10:40:52.242Z,951.59
2019-01-12T10:43:18.538Z,951.62
2019-01-12T10:45:44.852Z,951.68
2019-01-12T10:48:11.265Z,951.60
2019-01-12T10:50:37.534Z,951.68
2019-01-12T10:53:03.839Z,951.65
2019-01-12T10:55:30.149Z,951.63
2019-01-12T10:57:56.444Z,951.67
2019-01-12T11:00:22.852Z,951.65
2019-01-12T11:02:49.193Z,951.64
2019-01-12T11:05:15.494Z,951.62
2019-01-12T11:07:41.809Z,951.56
2019-01-12T11:10:08.104Z,951.48
2019-01-12T11:12:34.498Z,951.41
2019-01-12T11:15:00.771Z,951.47
2019-01-12T11:17:27.094Z,951.45
2019-01-12T11:19:53.967Z,951.43
2019-01-12T11:22:19.716Z,951.50
2019-01-12T11:31:31.578Z,951.45
2019-01-12T11:33:57.883Z,951.43
2019-01-12T11:36:24.230Z,951.29
2019-01-12T11:38:50.543Z,951.24
2019-01-12T11:41:16.841Z,951.15
2019-01-12T11:43:43.141Z,951.20
2019-01-12T11:46:09.451Z,951.17
2019-01-12T11:48:35.767Z,951.22
2019-01-12T11:51:02.080Z,951.14
2019-01-12T11:53:28.374Z,951.08
2019-01-12T11:55:54.712Z,951.06
2019-01-12T11:58:21.042Z,950.92
2019-01-12T12:00:47.365Z,950.89
2019-01-12T12:03:13.674Z,950.91
2019-01-12T12:05:40.016Z,950.89
2019-01-12T12:08:06.336Z,950.89
2019-01-12T12:10:32.636Z,950.99
2019-01-12T12:12:58.942Z,950.93
2019-01-12T12:15:25.231Z,950.91
2019-01-12T12:17:51.566Z,950.81
2019-01-12T12:20:17.867Z,950.81
2019-01-12T12:22:44.173Z,950.91
2019-01-12T12:25:10.487Z,950.81
2019-01-12T12:27:36.779Z,950.77
2019-01-12T12:30:07.089Z,950.84
2019-01-12T12:32:33.409Z,950.82
2019-01-12T12:34:59.716Z,950.78
2019-01-12T12:37:26.015Z,950.85
2019-01-12T12:39:52.314Z,950.83
2019-01-12T12:42:18.636Z,950.80
2019-01-12T12:44:44.945Z,950.78
2019-01-12T12:47:11.281Z,950.84
2019-01-12T12:49:37.623Z,950.81
2019-01-12T12:52:03.908Z,950.75
2019-01-12T12:54:30.226Z,950.77
2019-01-12T12:56:56.545Z,950.73
2019-01-12T12:59:22.856Z,950.73
2019-01-12T13:01:49.150Z,950.78
2019-01-12T13:04:15.467Z,950.77
2019-01-12T13:06:41.773Z,950.72
2019-01-12T13:09:08.090Z,950.76
2019-01-12T13:11:34.444Z,950.74
2019-01-12T13:14:00.749Z,950.79
2019-01-12T13:16:27.083Z,950.79
2019-01-12T13:18:53.362Z,950.87
2019-01-12T13:21:19.682Z,950.83
2019-01-12T13:23:46.022Z,950.78
2019-01-12T13:26:12.332Z,950.80
2019-01-12T13:28:38.647Z,950.79
2019-01-12T13:31:04.951Z,950.78
2019-01-12T13:33:31.243Z,950.81
2019-01-12T13:35:57.559Z,950.74
2019-01-12T13:38:23.875Z,950.80
2019-01-12T13:40:50.184Z,950.76
2019-01-12T13:43:16.478Z,950.72
2019-01-12T13:45:42.776Z,950.85
2019-01-12T13:48:09.092Z,950.79
2019-01-12T13:50:35.387Z,950.84
2019-01-12T13:53:01.686Z,950.81
2019-01-12T13:55:27.991Z,950.88
2019-01-12T13:57:54.302Z,950.84
2019-01-12T14:00:20.965Z,950.90
2019-01-12T14:02:47.227Z,950.83
2019-01-12T14:05:13.538Z,950.89
2019-01-12T14:07:39.851Z,950.88
2019-01-12T14:10:06.160Z,950.86
2019-01-12T14:12:32.498Z,950.98
2019-01-12T14:14:58.811Z,951.02
2019-01-12T14:17:25.109Z,951.01
2019-01-12T14:19:52.496Z,950.95
2019-01-12T14:22:17.727Z,951.00
2019-01-12T14:24:44.030Z,951.02
2019-01-12T14:27:10.324Z,950.92
2019-01-12T14:29:36.622Z,951.03
2019-01-12T14:32:02.930Z,950.84
2019-01-12T14:34:29.261Z,950.89
2019-01-12T14:36:55.585Z,950.87
2019-01-12T14:39:21.921Z,951.02
2019-01-12T14:41:48.210Z,951.02
2019-01-12T14:44:14.521Z,950.96
2019-01-12T14:46:40.826Z,950.98
2019-01-12T14:49:07.153Z,950.98
2019-01-12T14:51:33.467Z,950.92
2019-01-12T14:53:59.786Z,951.02
2019-01-12T14:56:26.097Z,950.93
2019-01-12T14:58:52.399Z,950.98
2019-01-12T15:01:18.718Z,950.95
2019-01-12T15:03:45.048Z,950.94
2019-01-12T15:06:11.358Z,950.98
2019-01-12T15:08:37.655Z,951.04
2019-01-12T15:11:03.965Z,951.00
2019-01-12T15:13:30.272Z,951.06
2019-01-12T15:15:56.558Z,951.02
2019-01-12T15:18:22.900Z,951.02
2019-01-12T15:20:49.216Z,951.02
2019-01-12T15:23:15.529Z,951.09
2019-01-12T15:25:41.834Z,951.11
2019-01-12T15:28:09.484Z,951.14
2019-01-12T15:30:34.465Z,951.08
2019-01-12T15:33:01.591Z,951.17
2019-01-12T15:35:27.912Z,951.11
2019-01-12T15:37:54.258Z,951.21
2019-01-12T15:40:20.569Z,951.22
2019-01-12T15:42:46.871Z,951.15
2019-01-12T15:45:13.204Z,951.08
2019-01-12T15:47:41.846Z,951.14
2019-01-12T15:50:08.177Z,951.08
2019-01-12T15:52:34.471Z,951.16
2019-01-12T15:55:00.768Z,951.17
2019-01-12T15:57:27.093Z,951.22
2019-01-12T15:59:53.384Z,951.32
2019-01-12T16:02:19.702Z,951.32
2019-01-12T16:04:46.002Z,951.31
2019-01-12T16:07:12.335Z,951.37
2019-01-12T16:09:38.642Z,951.40
2019-01-12T16:12:04.937Z,951.44
2019-01-12T16:14:31.243Z,951.42
2019-01-12T16:16:59.970Z,951.45
2019-01-12T16:19:26.305Z,951.47
2019-01-12T16:21:52.616Z,951.51
2019-01-12T16:24:18.927Z,951.48
2019-01-12T16:26:45.244Z,951.51
2019-01-12T16:29:11.572Z,951.52
2019-01-12T16:31:37.860Z,951.55
2019-01-12T16:34:04.160Z,951.51
2019-01-12T16:36:30.477Z,951.56
2019-01-12T16:38:56.777Z,951.55
2019-01-12T16:41:23.098Z,951.53
2019-01-12T16:43:49.388Z,951.54
2019-01-12T16:46:15.693Z,951.60
2019-01-12T16:48:43.125Z,951.57
2019-01-12T16:51:08.298Z,951.60
2019-01-12T16:53:34.596Z,951.54
2019-01-12T16:56:03.090Z,951.62
2019-01-12T16:58:30.578Z,951.47
2019-01-12T17:00:55.749Z,951.50
2019-01-12T17:03:22.069Z,951.55
2019-01-12T17:05:48.384Z,951.46
2019-01-12T17:08:14.686Z,951.48
2019-01-12T17:10:40.992Z,951.47
2019-01-12T17:13:07.282Z,951.46
2019-01-12T17:15:34.892Z,951.50
2019-01-12T17:17:59.924Z,951.53
2019-01-12T17:20:26.235Z,951.58
2019-01-12T17:22:52.553Z,951.53
2019-01-12T17:25:18.855Z,951.56
2019-01-12T17:27:45.223Z,951.52
2019-01-12T17:30:11.464Z,951.58
2019-01-12T17:32:37.766Z,951.51
2019-01-12T17:35:04.086Z,951.53
2019-01-12T17:37:30.399Z,951.51
2019-01-12T17:39:56.704Z,951.46
2019-01-12T17:42:23.015Z,951.49
2019-01-12T17:44:49.326Z,951.48
2019-01-12T17:47:15.643Z,951.50
2019-01-12T17:49:41.944Z,951.53
2019-01-12T17:52:08.235Z,951.55
2019-01-12T17:54:34.545Z,951.57
2019-01-12T17:57:00.853Z,951.60
2019-01-12T17:59:27.148Z,951.71
2019-01-12T18:01:53.448Z,951.73
2019-01-12T18:04:20.149Z,951.67
2019-01-12T18:06:46.457Z,951.59
2019-01-12T18:09:12.757Z,951.54
2019-01-12T18:11:39.059Z,951.59
2019-01-12T18:14:05.360Z,951.48
2019-01-12T18:16:31.670Z,951.51
2019-01-12T18:18:57.967Z,951.56
2019-01-12T18:21:24.278Z,951.49
2019-01-12T18:23:50.638Z,951.51
2019-01-12T18:26:16.942Z,951.53
2019-01-12T18:28:43.240Z,951.41
2019-01-12T18:31:09.555Z,951.45
2019-01-12T18:33:35.868Z,951.44
2019-01-12T18:38:28.248Z,951.38
2019-01-12T18:40:54.555Z,951.38
2019-01-12T18:43:22.096Z,951.44
2019-01-12T18:45:47.345Z,951.46
2019-01-12T18:48:13.593Z,951.34
2019-01-12T18:50:39.896Z,951.41
2019-01-12T18:53:06.209Z,951.43
2019-01-12T18:55:32.558Z,951.32
2019-01-12T18:57:58.875Z,951.35
2019-01-12T19:00:25.193Z,951.32
2019-01-12T19:02:51.544Z,951.33
2019-01-12T19:05:17.807Z,951.28
2019-01-12T19:07:44.112Z,951.26
2019-01-12T19:10:10.417Z,951.28
2019-01-12T19:12:36.738Z,951.37
2019-01-12T19:15:03.035Z,951.36
2019-01-12T19:17:29.352Z,951.33
2019-01-12T19:19:55.664Z,951.30
2019-01-12T19:22:21.996Z,951.29
2019-01-12T19:24:48.290Z,951.33
2019-01-12T19:27:14.608Z,951.43
2019-01-12T19:29:40.913Z,951.39
2019-01-12T19:32:07.219Z,951.40
2019-01-12T19:34:33.530Z,951.37
2019-01-12T19:36:59.829Z,951.38
2019-01-12T19:39:26.152Z,951.35
2019-01-12T19:41:52.477Z,951.44
2019-01-12T19:44:18.744Z,951.41
2019-01-12T19:46:45.040Z,951.44
2019-01-12T19:49:11.346Z,951.37
2019-01-12T19:51:37.631Z,951.40
2019-01-12T19:54:03.929Z,951.35
2019-01-12T19:56:30.244Z,951.35
2019-01-12T19:58:56.549Z,951.36
2019-01-12T20:01:22.850Z,951.36
2019-01-12T20:03:49.170Z,951.43
2019-01-12T20:06:17.193Z,951.40
2019-01-12T20:08:41.787Z,951.41
2019-01-12T20:11:08.085Z,951.27
2019-01-12T20:13:34.400Z,951.27
2019-01-12T20:16:00.694Z,951.29
2019-01-12T20:18:27.012Z,951.22
2019-01-12T20:20:53.323Z,951.20
2019-01-12T20:23:19.620Z,951.21
2019-01-12T20:25:45.925Z,951.17
2019-01-12T20:28:12.229Z,951.17
2019-01-12T20:30:45.964Z,951.11
2019-01-12T20:33:12.271Z,951.07
2019-01-12T20:35:38.586Z,951.04
2019-01-12T20:38:04.884Z,951.03
2019-01-12T20:40:31.195Z,950.98
2019-01-12T20:42:57.507Z,950.99
2019-01-12T20:45:23.812Z,950.96
2019-01-12T20:47:50.119Z,950.92
2019-01-12T20:50:19.464Z,950.84
2019-01-12T20:52:43.067Z,950.81
2019-01-12T20:55:09.372Z,950.75
2019-01-12T20:57:35.688Z,950.78
2019-01-12T21:00:02.001Z,950.79
2019-01-12T21:02:28.298Z,950.75
2019-01-12T21:04:54.604Z,950.71
2019-01-12T21:07:20.923Z,950.69
2019-01-12T21:09:47.253Z,950.70
2019-01-12T21:12:13.549Z,950.62
2019-01-12T21:14:39.900Z,950.57
2019-01-12T21:17:06.182Z,950.57
2019-01-12T21:19:32.529Z,950.57
2019-01-12T21:21:58.850Z,950.62
2019-01-12T21:24:25.164Z,950.53
2019-01-12T21:26:51.431Z,950.54
2019-01-12T21:29:17.734Z,950.57
2019-01-12T21:31:44.046Z,950.56
2019-01-12T21:34:10.352Z,950.54
2019-01-12T21:36:36.645Z,950.59
2019-01-12T21:39:02.962Z,950.59
2019-01-12T21:41:29.265Z,950.57
2019-01-12T21:43:55.568Z,950.56
2019-01-12T21:46:21.878Z,950.55
2019-01-12T21:48:48.195Z,950.48
2019-01-12T21:51:14.494Z,950.52
2019-01-12T21:53:40.799Z,950.51
2019-01-12T21:56:07.091Z,950.50
2019-01-12T21:58:33.411Z,950.52
2019-01-12T22:00:59.714Z,950.48
2019-01-12T22:03:26.013Z,950.46
2019-01-12T22:05:52.322Z,950.44
2019-01-12T22:08:18.637Z,950.48
2019-01-12T22:10:47.466Z,950.47
2019-01-12T22:13:13.752Z,950.44
2019-01-12T22:15:40.064Z,950.39
2019-01-12T22:18:06.372Z,950.36
2019-01-12T22:20:32.709Z,950.27
2019-01-12T22:22:59.019Z,950.31
2019-01-12T22:25:25.317Z,950.25
2019-01-12T22:27:51.657Z,950.21
2019-01-12T22:30:17.975Z,950.21
2019-01-12T22:32:44.319Z,950.16
2019-01-12T22:35:10.644Z,950.14
2019-01-12T22:37:36.934Z,950.15
2019-01-12T22:40:03.232Z,950.18
2019-01-12T22:42:32.132Z,950.20
2019-01-12T22:44:58.437Z,950.16
2019-01-12T22:47:24.700Z,950.19
2019-01-12T22:49:51.007Z,950.13
2019-01-12T22:52:17.380Z,950.16
2019-01-12T22:54:43.681Z,950.16
2019-01-12T22:57:10.012Z,950.13
2019-01-12T22:59:39.843Z,950.09
2019-01-12T23:02:06.121Z,950.10
2019-01-12T23:04:34.600Z,950.03
2019-01-12T23:06:58.899Z,949.95
2019-01-12T23:09:28.281Z,950.01
2019-01-12T23:11:54.892Z,950.03
2019-01-12T23:14:21.142Z,950.06
2019-01-12T23:16:47.461Z,949.99
2019-01-12T23:19:13.763Z,949.90
2019-01-12T23:21:40.068Z,949.93
2019-01-12T23:24:06.387Z,949.98
2019-01-12T23:26:32.700Z,950.02
2019-01-12T23:28:59.009Z,950.03
2019-01-12T23:31:25.334Z,950.05
2019-01-12T23:33:51.639Z,950.01
2019-01-12T23:36:17.985Z,950.09
2019-01-12T23:38:44.304Z,949.99
2019-01-12T23:41:10.648Z,950.01
2019-01-12T23:43:36.957Z,950.00
2019-01-12T23:46:03.297Z,949.90
2019-01-12T23:48:29.608Z,949.94
2019-01-12T23:50:55.910Z,949.92
2019-01-12T23:53:22.239Z,949.93
2019-01-12T23:55:48.524Z,949.84
2019-01-12T23:58:14.825Z,949.82
